createdAt,value
2022-10-08T00:02:18.782Z,7.05
2022-10-08T00:05:23.253Z,7.26
2022-10-08T00:08:30.138Z,7.86
2022-10-08T00:11:41.550Z,8.02
2022-10-08T00:14:45.818Z,8.26
2022-10-08T00:17:50.039Z,8.25
2022-10-08T00:21:04.901Z,8.65
2022-10-08T00:24:11.880Z,8.91
2022-10-08T00:27:17.072Z,9.10
2022-10-08T00:30:21.400Z,9.63
2022-10-08T00:33:25.562Z,10.07
2022-10-08T00:36:35.313Z,9.87
2022-10-08T00:39:39.992Z,10.17
2022-10-08T00:42:46.556Z,10.49
2022-10-08T00:45:51.211Z,11.28
2022-10-08T00:49:25.910Z,12.05
2022-10-08T00:52:35.976Z,11.98
2022-10-08T00:55:43.876Z,12.20
2022-10-08T00:58:50.149Z,12.62
2022-10-08T01:01:54.914Z,12.97
2022-10-08T01:04:59.936Z,12.84
2022-10-08T01:08:22.445Z,12.51
2022-10-08T01:12:02.778Z,13.13
2022-10-08T01:15:23.206Z,12.81
2022-10-08T01:18:53.412Z,13.00
2022-10-08T01:22:19.877Z,13.07
2022-10-08T01:25:35.694Z,13.22
2022-10-08T01:28:46.910Z,13.70
2022-10-08T01:32:04.763Z,14.18
2022-10-08T01:35:15.175Z,13.80
2022-10-08T01:38:23.108Z,13.88
2022-10-08T01:41:30.356Z,13.52
2022-10-08T01:44:48.058Z,13.41
2022-10-08T01:47:53.744Z,13.29
2022-10-08T01:51:16.112Z,13.25
2022-10-08T01:54:23.385Z,13.15
2022-10-08T01:57:30.193Z,12.16
2022-10-08T02:00:36.849Z,12.49
2022-10-08T02:04:01.085Z,12.51
2022-10-08T02:07:29.824Z,12.72
2022-10-08T02:10:34.459Z,12.55
2022-10-08T02:13:39.142Z,12.68
2022-10-08T02:16:52.414Z,12.52
2022-10-08T02:20:23.237Z,12.57
2022-10-08T02:23:53.742Z,12.43
2022-10-08T02:27:02.566Z,12.50
2022-10-08T02:30:11.357Z,12.44
2022-10-08T02:33:22.409Z,12.41
2022-10-08T02:36:38.083Z,12.25
2022-10-08T02:39:47.944Z,12.25
2022-10-08T02:42:58.002Z,12.23
2022-10-08T02:46:18.007Z,11.91
2022-10-08T02:49:28.418Z,11.91
2022-10-08T02:52:40.317Z,12.05
2022-10-08T02:55:55.650Z,12.02
2022-10-08T02:59:00.101Z,11.94
2022-10-08T03:02:06.563Z,12.10
2022-10-08T03:05:18.647Z,12.23
2022-10-08T03:08:23.484Z,12.07
2022-10-08T03:11:28.916Z,12.23
2022-10-08T03:14:36.748Z,11.47
2022-10-08T03:17:45.876Z,12.20
2022-10-08T03:20:52.744Z,12.19
2022-10-08T03:23:57.177Z,12.24
2022-10-08T03:27:01.673Z,12.24
2022-10-08T03:30:06.534Z,12.36
2022-10-08T03:33:11.024Z,12.13
2022-10-08T03:36:15.629Z,12.32
2022-10-08T03:39:20.031Z,12.36
2022-10-08T03:42:24.278Z,12.57
2022-10-08T03:45:28.772Z,12.53
2022-10-08T03:48:33.729Z,12.61
2022-10-08T03:51:38.217Z,12.70
2022-10-08T03:54:42.571Z,12.40
2022-10-08T03:57:46.997Z,12.51
2022-10-08T04:01:24.141Z,12.68
2022-10-08T04:04:28.760Z,12.82
2022-10-08T04:07:33.439Z,12.73
2022-10-08T04:10:39.674Z,12.83
2022-10-08T04:13:45.051Z,13.02
2022-10-08T04:16:49.534Z,12.61
2022-10-08T04:19:54.303Z,12.71
2022-10-08T04:22:58.812Z,12.64
2022-10-08T04:26:03.974Z,12.94
2022-10-08T04:29:09.150Z,12.85
2022-10-08T04:32:13.465Z,13.07
2022-10-08T04:35:17.968Z,12.95
2022-10-08T04:38:23.195Z,12.92
2022-10-08T04:41:28.807Z,13.02
2022-10-08T04:44:32.954Z,13.20
2022-10-08T04:47:37.477Z,13.34
2022-10-08T04:50:42.177Z,13.24
2022-10-08T04:53:47.062Z,12.86
2022-10-08T04:56:51.660Z,13.10
2022-10-08T05:00:16.956Z,13.10
2022-10-08T05:03:20.567Z,13.10
2022-10-08T05:06:28.982Z,13.21
2022-10-08T05:09:33.183Z,13.20
2022-10-08T05:12:37.736Z,13.44
2022-10-08T05:15:42.092Z,13.39
2022-10-08T05:18:46.803Z,13.33
2022-10-08T05:21:51.316Z,13.08
2022-10-08T05:24:55.508Z,13.08
2022-10-08T05:28:00.299Z,13.16
2022-10-08T05:31:04.954Z,13.01
2022-10-08T05:34:09.537Z,13.04
2022-10-08T05:37:13.893Z,12.84
2022-10-08T05:40:18.203Z,12.68
2022-10-08T05:43:22.508Z,12.54
2022-10-08T05:46:29.085Z,12.80
2022-10-08T05:49:33.759Z,13.00
2022-10-08T05:52:38.161Z,13.02
2022-10-08T05:55:42.778Z,13.17
2022-10-08T05:58:47.944Z,13.16
2022-10-08T06:01:53.312Z,13.32
2022-10-08T06:04:57.497Z,13.34
2022-10-08T06:08:01.967Z,13.29
2022-10-08T06:11:07.846Z,13.08
2022-10-08T06:14:14.322Z,13.24
2022-10-08T06:17:18.783Z,13.14
2022-10-08T06:20:23.138Z,13.41
2022-10-08T06:23:27.728Z,13.55
2022-10-08T06:26:40.174Z,13.64
2022-10-08T06:29:44.658Z,13.56
2022-10-08T06:32:49.410Z,13.68
2022-10-08T06:35:54.317Z,13.67
2022-10-08T06:39:04.911Z,13.83
2022-10-08T06:42:09.376Z,13.74
2022-10-08T06:45:14.445Z,13.59
2022-10-08T06:48:20.612Z,13.81
2022-10-08T06:51:25.051Z,14.02
2022-10-08T06:54:29.419Z,14.08
2022-10-08T06:57:34.107Z,13.26
2022-10-08T07:00:39.858Z,13.81
2022-10-08T07:03:44.623Z,13.85
2022-10-08T07:06:49.145Z,13.71
2022-10-08T07:09:53.440Z,13.63
2022-10-08T07:12:57.859Z,13.58
2022-10-08T07:16:07.680Z,13.45
2022-10-08T07:19:12.084Z,13.44
2022-10-08T07:22:16.446Z,13.20
2022-10-08T07:25:20.840Z,12.79
2022-10-08T07:28:26.634Z,12.91
2022-10-08T07:31:36.453Z,12.84
2022-10-08T07:34:40.945Z,12.44
2022-10-08T07:37:45.595Z,12.27
2022-10-08T07:40:51.854Z,12.25
2022-10-08T07:44:00.681Z,11.98
2022-10-08T07:47:05.363Z,11.85
2022-10-08T07:50:10.380Z,11.78
2022-10-08T07:53:14.738Z,11.67
2022-10-08T07:56:22.233Z,11.63
2022-10-08T07:59:26.669Z,11.50
2022-10-08T08:02:31.040Z,11.52
2022-10-08T08:05:36.658Z,11.39
2022-10-08T08:08:41.750Z,11.11
2022-10-08T08:11:47.411Z,11.05
2022-10-08T08:14:52.033Z,10.91
2022-10-08T08:17:56.523Z,10.70
2022-10-08T08:21:06.148Z,10.44
2022-10-08T08:24:16.030Z,10.23
2022-10-08T08:27:20.411Z,10.09
2022-10-08T08:30:24.721Z,9.81
2022-10-08T08:33:29.245Z,9.74
2022-10-08T08:36:37.189Z,9.14
2022-10-08T08:39:42.006Z,9.23
2022-10-08T08:42:56.336Z,9.09
2022-10-08T08:46:02.836Z,8.89
2022-10-08T08:49:16.506Z,8.74
2022-10-08T08:52:26.193Z,8.62
2022-10-08T08:55:50.159Z,8.53
2022-10-08T08:59:29.589Z,8.54
2022-10-08T09:02:40.228Z,8.35
2022-10-08T09:05:48.776Z,8.40
2022-10-08T09:09:03.851Z,8.34
2022-10-08T09:12:20.446Z,8.25
2022-10-08T09:15:34.419Z,8.15
2022-10-08T09:18:39.294Z,7.73
2022-10-08T09:21:43.967Z,7.44
2022-10-08T09:24:53.122Z,7.47
2022-10-08T09:28:01.841Z,7.49
2022-10-08T09:31:20.167Z,8.01
2022-10-08T09:34:24.934Z,7.84
2022-10-08T09:37:29.532Z,7.41
2022-10-08T09:40:34.367Z,7.37
2022-10-08T09:43:38.872Z,7.15
2022-10-08T09:46:43.675Z,7.11
2022-10-08T09:50:02.754Z,7.24
2022-10-08T09:53:07.890Z,6.72
2022-10-08T09:56:14.910Z,6.81
2022-10-08T09:59:22.655Z,6.94
2022-10-08T10:02:31.910Z,6.68
2022-10-08T10:05:38.050Z,5.98
2022-10-08T10:09:00.988Z,5.82
2022-10-08T10:12:21.037Z,5.65
2022-10-08T10:15:35.670Z,5.77
2022-10-08T10:19:02.582Z,5.65
2022-10-08T10:22:23.101Z,5.83
2022-10-08T10:25:39.293Z,5.36
2022-10-08T10:28:54.288Z,5.61
2022-10-08T10:32:20.975Z,5.42
2022-10-08T10:35:31.545Z,5.12
2022-10-08T10:38:43.248Z,5.18
2022-10-08T10:41:56.751Z,5.15
2022-10-08T10:45:35.997Z,5.01
2022-10-08T10:48:40.423Z,4.75
2022-10-08T10:52:34.538Z,4.67
2022-10-08T10:56:02.973Z,4.77
2022-10-08T10:59:21.488Z,4.45
2022-10-08T11:02:44.385Z,4.48
2022-10-08T11:05:56.729Z,4.66
2022-10-08T11:09:31.983Z,4.73
2022-10-08T11:13:26.539Z,4.85
2022-10-08T11:16:31.263Z,4.54
2022-10-08T11:20:00.217Z,4.33
2022-10-08T11:23:22.554Z,3.57
2022-10-08T11:26:45.815Z,3.94
2022-10-08T11:30:07.399Z,4.07
2022-10-08T11:33:15.457Z,4.06
2022-10-08T11:36:23.021Z,3.82
2022-10-08T11:40:00.589Z,3.74
2022-10-08T11:43:20.221Z,3.85
2022-10-08T11:46:32.227Z,3.94
2022-10-08T11:49:39.438Z,4.09
2022-10-08T11:52:44.285Z,4.19
2022-10-08T11:56:00.244Z,3.87
2022-10-08T11:59:28.558Z,3.53
2022-10-08T12:02:39.423Z,3.47
2022-10-08T12:05:51.776Z,3.50
2022-10-08T12:08:58.940Z,3.38
2022-10-08T12:12:14.929Z,3.19
2022-10-08T12:15:25.432Z,3.35
2022-10-08T12:18:32.292Z,3.52
2022-10-08T12:21:47.882Z,3.44
2022-10-08T12:24:58.399Z,2.94
2022-10-08T12:28:22.067Z,3.54
2022-10-08T12:31:33.094Z,3.68
2022-10-08T12:34:37.560Z,3.70
2022-10-08T12:37:45.169Z,3.59
2022-10-08T12:41:27.630Z,3.64
2022-10-08T12:45:09.561Z,2.94
2022-10-08T12:48:42.069Z,2.85
2022-10-08T12:52:12.918Z,2.56
2022-10-08T12:55:24.421Z,3.06
2022-10-08T12:58:32.784Z,3.31
2022-10-08T13:01:37.439Z,3.08
2022-10-08T13:04:47.676Z,3.14
2022-10-08T13:07:52.526Z,2.76
2022-10-08T13:10:58.751Z,2.65
2022-10-08T13:14:02.752Z,2.39
2022-10-08T13:17:07.829Z,2.37
2022-10-08T13:20:12.076Z,2.48
2022-10-08T13:23:38.491Z,2.55
2022-10-08T13:26:44.249Z,2.44
2022-10-08T13:29:48.356Z,2.49
2022-10-08T13:33:04.029Z,2.57
2022-10-08T13:36:08.669Z,2.55
2022-10-08T13:39:25.235Z,2.60
2022-10-08T13:42:34.498Z,2.78
2022-10-08T13:45:38.990Z,2.96
2022-10-08T13:48:46.725Z,3.05
2022-10-08T13:51:51.980Z,2.98
2022-10-08T13:55:01.332Z,2.71
2022-10-08T13:58:08.407Z,2.55
2022-10-08T14:01:13.125Z,2.10
2022-10-08T14:04:18.761Z,2.23
2022-10-08T14:07:30.053Z,2.29
2022-10-08T14:10:34.665Z,2.18
2022-10-08T14:13:39.079Z,2.31
2022-10-08T14:16:44.313Z,2.42
2022-10-08T14:19:49.068Z,2.42
2022-10-08T14:22:53.655Z,2.78
2022-10-08T14:25:58.163Z,2.74
2022-10-08T14:29:02.589Z,2.66
2022-10-08T14:32:09.331Z,2.75
2022-10-08T14:35:14.610Z,2.68
2022-10-08T14:38:19.325Z,2.57
2022-10-08T14:41:23.711Z,2.71
2022-10-08T14:44:28.085Z,2.69
2022-10-08T14:47:32.390Z,2.66
2022-10-08T14:50:36.727Z,2.57
2022-10-08T14:53:41.204Z,2.66
2022-10-08T14:56:46.882Z,2.58
2022-10-08T14:59:51.264Z,2.39
2022-10-08T15:02:55.830Z,2.24
2022-10-08T15:06:01.716Z,2.17
2022-10-08T15:09:06.388Z,2.22
2022-10-08T15:12:10.680Z,2.37
2022-10-08T15:15:15.292Z,2.20
2022-10-08T15:18:19.668Z,1.98
2022-10-08T15:21:24.079Z,2.14
2022-10-08T15:24:28.818Z,2.00
2022-10-08T15:27:33.121Z,1.96
2022-10-08T15:30:37.793Z,2.09
2022-10-08T15:33:47.836Z,1.98
2022-10-08T15:36:56.706Z,2.06
2022-10-08T15:40:01.000Z,2.03
2022-10-08T15:43:06.774Z,2.17
2022-10-08T15:46:14.286Z,2.17
2022-10-08T15:49:18.689Z,2.05
2022-10-08T15:52:23.319Z,1.92
2022-10-08T15:55:27.615Z,2.15
2022-10-08T15:58:50.347Z,1.89
2022-10-08T16:01:55.094Z,1.93
2022-10-08T16:04:59.271Z,1.81
2022-10-08T16:08:03.745Z,1.77
2022-10-08T16:11:32.596Z,1.81
2022-10-08T16:14:37.022Z,2.01
2022-10-08T16:17:41.455Z,2.03
2022-10-08T16:20:47.333Z,2.28
2022-10-08T16:23:53.940Z,2.02
2022-10-08T16:26:58.488Z,2.15
2022-10-08T16:30:02.925Z,2.21
2022-10-08T16:33:07.434Z,2.43
2022-10-08T16:36:13.067Z,2.51
2022-10-08T16:39:21.426Z,3.50
2022-10-08T16:42:26.511Z,4.47
2022-10-08T16:45:30.832Z,4.67
2022-10-08T16:48:41.507Z,4.81
2022-10-08T16:51:46.570Z,5.11
2022-10-08T16:54:54.704Z,5.32
2022-10-08T16:57:59.421Z,5.44
2022-10-08T17:01:08.211Z,5.53
2022-10-08T17:04:15.052Z,5.63
2022-10-08T17:07:19.447Z,5.72
2022-10-08T17:10:24.158Z,5.73
2022-10-08T17:13:28.550Z,5.90
2022-10-08T17:16:33.128Z,5.91
2022-10-08T17:19:38.028Z,6.06
2022-10-08T17:22:42.233Z,6.11
2022-10-08T17:25:47.146Z,6.23
2022-10-08T17:28:52.884Z,6.36
2022-10-08T17:31:57.235Z,6.43
2022-10-08T17:35:01.550Z,6.28
2022-10-08T17:38:07.071Z,6.13
2022-10-08T17:41:13.365Z,6.13
2022-10-08T17:44:18.123Z,5.93
2022-10-08T17:47:25.809Z,6.26
2022-10-08T17:50:37.183Z,6.20
2022-10-08T17:53:41.746Z,6.23
2022-10-08T17:56:46.649Z,6.22
2022-10-08T17:59:51.127Z,6.42
2022-10-08T18:02:55.986Z,6.48
2022-10-08T18:06:01.156Z,6.55
2022-10-08T18:09:08.651Z,6.32
2022-10-08T18:12:13.958Z,6.66
2022-10-08T18:15:18.318Z,6.46
2022-10-08T18:18:22.692Z,6.64
2022-10-08T18:21:27.141Z,6.62
2022-10-08T18:24:31.599Z,6.52
2022-10-08T18:27:35.752Z,6.57
2022-10-08T18:30:40.697Z,6.58
2022-10-08T18:33:47.109Z,6.53
2022-10-08T18:36:51.226Z,6.76
2022-10-08T18:39:55.418Z,6.86
2022-10-08T18:43:00.303Z,6.89
2022-10-08T18:46:05.388Z,6.67
2022-10-08T18:49:13.329Z,6.74
2022-10-08T18:52:21.390Z,6.90
2022-10-08T18:55:26.185Z,6.88
2022-10-08T18:58:30.863Z,6.95
2022-10-08T19:01:39.143Z,6.85
2022-10-08T19:04:43.723Z,6.92
2022-10-08T19:07:48.035Z,6.91
2022-10-08T19:10:52.539Z,7.06
2022-10-08T19:13:57.324Z,6.99
2022-10-08T19:17:02.175Z,6.98
2022-10-08T19:20:07.309Z,7.00
2022-10-08T19:23:11.575Z,6.86
2022-10-08T19:26:16.751Z,6.77
2022-10-08T19:29:23.978Z,6.91
2022-10-08T19:32:28.747Z,7.00
2022-10-08T19:35:33.089Z,7.04
2022-10-08T19:38:37.601Z,7.03
2022-10-08T19:41:43.246Z,7.00
2022-10-08T19:44:47.723Z,6.89
2022-10-08T19:47:52.233Z,6.62
2022-10-08T19:50:56.836Z,6.59
2022-10-08T19:54:02.564Z,6.74
2022-10-08T19:57:06.650Z,6.43
2022-10-08T20:00:11.816Z,6.36
2022-10-08T20:03:16.398Z,6.28
2022-10-08T20:06:24.593Z,6.57
2022-10-08T20:09:31.437Z,6.34
2022-10-08T20:12:35.832Z,6.53
2022-10-08T20:15:41.040Z,6.22
2022-10-08T20:18:53.404Z,6.35
2022-10-08T20:21:57.841Z,6.06
2022-10-08T20:25:02.222Z,6.23
2022-10-08T20:28:06.895Z,6.23
2022-10-08T20:31:17.491Z,6.51
2022-10-08T20:34:33.968Z,6.37
2022-10-08T20:37:38.475Z,6.36
2022-10-08T20:40:43.383Z,6.43
2022-10-08T20:43:48.039Z,6.54
2022-10-08T20:46:53.323Z,6.55
2022-10-08T20:49:57.587Z,6.35
2022-10-08T20:53:01.981Z,6.35
2022-10-08T20:56:07.434Z,6.51
2022-10-08T20:59:17.227Z,6.55
2022-10-08T21:02:21.516Z,6.33
2022-10-08T21:05:26.632Z,5.88
2022-10-08T21:08:31.360Z,6.35
2022-10-08T21:11:36.942Z,6.32
2022-10-08T21:14:41.522Z,6.38
2022-10-08T21:17:45.789Z,6.16
2022-10-08T21:20:52.927Z,6.37
2022-10-08T21:23:58.587Z,6.23
2022-10-08T21:27:03.045Z,6.33
2022-10-08T21:30:07.743Z,6.26
2022-10-08T21:33:12.250Z,6.38
2022-10-08T21:36:25.918Z,6.33
2022-10-08T21:39:30.420Z,6.66
2022-10-08T21:42:34.874Z,6.58
2022-10-08T21:45:39.304Z,6.60
2022-10-08T21:48:43.672Z,6.86
2022-10-08T21:51:48.510Z,6.89
2022-10-08T21:54:52.950Z,6.61
2022-10-08T21:57:57.184Z,6.88
2022-10-08T22:01:01.337Z,7.06
2022-10-08T22:04:12.712Z,7.02
2022-10-08T22:07:16.978Z,6.94
2022-10-08T22:10:21.442Z,7.01
2022-10-08T22:13:25.925Z,6.94
2022-10-08T22:16:30.623Z,7.05
2022-10-08T22:19:37.511Z,6.90
2022-10-08T22:22:41.983Z,7.01
2022-10-08T22:25:56.928Z,6.96
2022-10-08T22:29:01.650Z,6.84
2022-10-08T22:32:07.283Z,6.94
2022-10-08T22:35:11.688Z,6.97
2022-10-08T22:38:16.385Z,7.16
2022-10-08T22:41:26.661Z,7.31
2022-10-08T22:44:31.427Z,7.60
2022-10-08T22:47:35.732Z,7.48
2022-10-08T22:50:39.869Z,7.47
2022-10-08T22:53:44.637Z,7.55
2022-10-08T22:56:49.222Z,7.73
2022-10-08T22:59:54.123Z,7.86
2022-10-08T23:02:58.712Z,7.88
2022-10-08T23:06:11.584Z,7.97
2022-10-08T23:09:16.016Z,7.92
2022-10-08T23:12:20.615Z,8.23
2022-10-08T23:15:25.041Z,8.24
2022-10-08T23:18:30.729Z,8.53
2022-10-08T23:21:36.354Z,8.34
2022-10-08T23:24:40.954Z,8.33
2022-10-08T23:27:45.448Z,8.49
2022-10-08T23:30:49.845Z,8.75
2022-10-08T23:33:55.712Z,8.76
2022-10-08T23:36:59.760Z,8.72
2022-10-08T23:40:04.565Z,8.79
2022-10-08T23:43:09.076Z,8.74
2022-10-08T23:46:15.907Z,8.96
2022-10-08T23:49:20.537Z,9.02
2022-10-08T23:52:26.150Z,9.08
2022-10-08T23:55:30.562Z,9.15
2022-10-08T23:58:35.239Z,9.15
